Chatham, Illinois
Current Conditions -  °F | °C
As of 2:05 PM on Wednesday 26 Nov 2014 (Local Time) from KSPI Reporting Station
Light Snow Light Snow  
Wind Chill: 24°   Ceiling: 700
Heat Index: 33°   Visibility: 2mi
Dew Point: 30°   Wind: 12mph
Humidity: 89%   Direction: 100°E
Pressure: 30.02"   Gusts: NA
Location:  39.68°N, 89.7°W
Report Text: KSPI 262005Z 10010KT 2SM -SN BR BKN007 OVC036 01/M01 A3002 RMK AO2 P0000 T00061011
Loading
Personal Weather Stations






























Interactive Weather Map New forecast layout! Learn more

10-Day Weather Forecast

Advertisements
Track Severe Weather on mobile